createdAt,value
2023-05-21T00:00:35.803Z,12.90
2023-05-21T00:01:35.776Z,12.90
2023-05-21T00:02:35.862Z,12.89
2023-05-21T00:03:35.923Z,12.86
2023-05-21T00:04:35.760Z,12.82
2023-05-21T00:05:35.984Z,12.90
2023-05-21T00:06:35.748Z,12.86
2023-05-21T00:07:35.719Z,12.92
2023-05-21T00:08:35.714Z,12.95
2023-05-21T00:09:35.700Z,12.96
2023-05-21T00:10:35.690Z,13.03
2023-05-21T00:11:35.661Z,12.83
2023-05-21T00:12:35.648Z,12.90
2023-05-21T00:13:35.636Z,12.92
2023-05-21T00:14:35.645Z,12.97
2023-05-21T00:15:35.834Z,12.95
2023-05-21T00:16:35.655Z,13.01
2023-05-21T00:17:35.631Z,12.97
2023-05-21T00:18:35.578Z,13.10
2023-05-21T00:19:35.593Z,13.05
2023-05-21T00:20:35.572Z,13.11
2023-05-21T00:21:35.548Z,13.15
2023-05-21T00:22:35.540Z,13.25
2023-05-21T00:23:35.540Z,13.25
2023-05-21T00:24:35.536Z,13.32
2023-05-21T00:25:35.706Z,13.20
2023-05-21T00:26:35.494Z,13.26
2023-05-21T00:27:35.481Z,13.12
2023-05-21T00:28:35.485Z,13.19
2023-05-21T00:29:35.459Z,13.28
2023-05-21T00:30:35.450Z,13.17
2023-05-21T00:31:35.476Z,13.28
2023-05-21T00:32:35.442Z,13.19
2023-05-21T00:33:35.438Z,13.17
2023-05-21T00:34:35.403Z,13.20
2023-05-21T00:35:35.575Z,13.23
2023-05-21T00:36:35.404Z,13.30
2023-05-21T00:37:35.367Z,13.20
2023-05-21T00:39:02.300Z,13.17
2023-05-21T00:40:47.558Z,13.23
2023-05-21T00:41:47.545Z,13.23
2023-05-21T00:42:47.550Z,13.19
2023-05-21T00:43:47.525Z,13.23
2023-05-21T00:44:47.513Z,13.29
2023-05-21T00:45:47.561Z,13.25
2023-05-21T00:46:47.490Z,13.22
2023-05-21T00:47:47.536Z,13.28
2023-05-21T00:48:47.469Z,13.33
2023-05-21T00:49:47.457Z,13.25
2023-05-21T00:50:47.444Z,13.28
2023-05-21T00:51:47.710Z,13.23
2023-05-21T00:52:47.755Z,13.26
2023-05-21T00:53:47.413Z,13.23
2023-05-21T00:54:47.403Z,13.22
2023-05-21T00:55:47.394Z,13.28
2023-05-21T00:56:47.412Z,13.26
2023-05-21T00:57:47.368Z,13.26
2023-05-21T00:58:47.360Z,13.29
2023-05-21T00:59:47.346Z,13.12
2023-05-21T01:00:47.336Z,13.23
2023-05-21T01:01:47.407Z,13.20
2023-05-21T01:02:47.409Z,13.12
2023-05-21T01:03:47.607Z,13.17
2023-05-21T01:04:47.298Z,13.12
2023-05-21T01:05:47.314Z,13.14
2023-05-21T01:06:47.282Z,13.08
2023-05-21T01:07:47.284Z,13.07
2023-05-21T01:08:47.253Z,12.96
2023-05-21T01:09:47.234Z,13.10
2023-05-21T01:10:47.233Z,13.01
2023-05-21T01:11:47.208Z,12.93
2023-05-21T01:12:47.193Z,12.97
2023-05-21T01:13:47.185Z,12.85
2023-05-21T01:14:47.176Z,12.92
2023-05-21T01:15:47.177Z,12.92
2023-05-21T01:16:47.186Z,12.86
2023-05-21T01:17:47.168Z,12.82
2023-05-21T01:18:47.285Z,12.85
2023-05-21T01:19:47.190Z,12.78
2023-05-21T01:20:47.123Z,12.82
2023-05-21T01:21:47.099Z,12.78
2023-05-21T01:22:47.092Z,12.74
2023-05-21T01:23:47.098Z,12.77
2023-05-21T01:24:47.083Z,12.72
2023-05-21T01:25:47.052Z,12.70
2023-05-21T01:26:47.036Z,12.71
2023-05-21T01:27:47.025Z,12.75
2023-05-21T01:28:47.034Z,12.75
2023-05-21T01:29:47.028Z,12.70
2023-05-21T01:30:46.996Z,12.70
2023-05-21T01:31:46.980Z,12.68
2023-05-21T01:32:47.023Z,12.68
2023-05-21T01:33:47.016Z,12.77
2023-05-21T01:34:46.982Z,12.65
2023-05-21T01:35:46.947Z,12.71
2023-05-21T01:36:46.919Z,12.78
2023-05-21T01:37:46.913Z,12.75
2023-05-21T01:38:46.927Z,12.75
2023-05-21T01:39:46.914Z,12.82
2023-05-21T01:40:46.896Z,12.79
2023-05-21T01:41:46.874Z,12.79
2023-05-21T01:42:46.856Z,12.75
2023-05-21T01:43:46.868Z,12.78
2023-05-21T01:44:46.841Z,12.65
2023-05-21T01:45:46.831Z,12.59
2023-05-21T01:46:46.976Z,12.57
2023-05-21T01:47:46.866Z,12.64
2023-05-21T01:48:46.801Z,12.54
2023-05-21T01:49:46.787Z,12.53
2023-05-21T01:50:46.768Z,12.52
2023-05-21T01:51:46.758Z,12.57
2023-05-21T01:52:46.778Z,12.56
2023-05-21T01:53:46.744Z,12.50
2023-05-21T01:54:46.724Z,12.52
2023-05-21T01:55:46.745Z,12.56
2023-05-21T01:56:46.706Z,12.53
2023-05-21T01:57:46.717Z,12.60
2023-05-21T01:58:46.698Z,12.52
2023-05-21T01:59:46.671Z,12.49
2023-05-21T02:00:46.661Z,12.46
2023-05-21T02:01:46.791Z,12.52
2023-05-21T02:02:46.755Z,12.45
2023-05-21T02:03:46.674Z,12.49
2023-05-21T02:04:46.617Z,12.47
2023-05-21T02:05:46.611Z,12.57
2023-05-21T02:06:46.601Z,12.47
2023-05-21T02:07:46.597Z,12.45
2023-05-21T02:08:46.576Z,12.47
2023-05-21T02:09:46.562Z,12.45
2023-05-21T02:10:46.547Z,12.53
2023-05-21T02:11:46.578Z,12.49
2023-05-21T02:12:46.531Z,12.52
2023-05-21T02:13:46.516Z,12.47
2023-05-21T02:14:46.508Z,12.49
2023-05-21T02:15:46.503Z,12.54
2023-05-21T02:16:46.583Z,12.45
2023-05-21T02:17:46.558Z,12.57
2023-05-21T02:18:46.600Z,12.50
2023-05-21T02:19:46.442Z,12.47
2023-05-21T02:20:46.466Z,12.46
2023-05-21T02:21:46.426Z,12.49
2023-05-21T02:22:46.406Z,12.42
2023-05-21T02:23:46.403Z,12.39
2023-05-21T02:24:46.388Z,12.45
2023-05-21T02:25:46.473Z,12.45
2023-05-21T02:26:46.368Z,12.46
2023-05-21T02:27:46.383Z,12.49
2023-05-21T02:28:46.342Z,12.49
2023-05-21T02:29:46.381Z,12.52
2023-05-21T02:30:46.337Z,12.42
2023-05-21T02:31:46.321Z,12.45
2023-05-21T02:32:46.316Z,12.50
2023-05-21T02:33:46.340Z,12.46
2023-05-21T02:34:46.291Z,12.47
2023-05-21T02:35:46.268Z,12.42
2023-05-21T02:36:46.252Z,12.47
2023-05-21T02:37:46.241Z,12.45
2023-05-21T02:38:46.229Z,12.46
2023-05-21T02:39:46.234Z,12.42
2023-05-21T02:40:46.214Z,12.46
2023-05-21T02:41:46.194Z,12.47
2023-05-21T02:42:46.186Z,12.42
2023-05-21T02:43:46.211Z,12.41
2023-05-21T02:44:46.183Z,12.46
2023-05-21T02:45:46.170Z,12.47
2023-05-21T02:46:46.137Z,12.52
2023-05-21T02:47:46.187Z,12.50
2023-05-21T02:48:46.142Z,12.50
2023-05-21T02:49:46.114Z,12.53
2023-05-21T02:50:46.094Z,12.60
2023-05-21T02:51:46.080Z,12.53
2023-05-21T02:52:46.084Z,12.60
2023-05-21T02:53:46.081Z,12.56
2023-05-21T02:54:46.049Z,12.50
2023-05-21T02:55:46.057Z,12.49
2023-05-21T02:56:46.023Z,12.57
2023-05-21T02:57:46.032Z,12.50
2023-05-21T02:58:46.017Z,12.50
2023-05-21T02:59:46.015Z,12.56
2023-05-21T03:00:45.983Z,12.39
2023-05-21T03:01:46.012Z,12.46
2023-05-21T03:02:46.252Z,12.49
2023-05-21T03:03:46.085Z,12.39
2023-05-21T03:04:46.024Z,12.35
2023-05-21T03:05:45.926Z,12.38
2023-05-21T03:06:45.906Z,12.37
2023-05-21T03:07:45.935Z,12.34
2023-05-21T03:08:45.884Z,12.35
2023-05-21T03:09:45.877Z,12.20
2023-05-21T03:10:45.879Z,12.23
2023-05-21T03:11:45.883Z,12.27
2023-05-21T03:12:45.857Z,12.20
2023-05-21T03:13:45.946Z,12.19
2023-05-21T03:14:45.822Z,12.16
2023-05-21T03:15:45.855Z,12.07
2023-05-21T03:16:45.976Z,12.10
2023-05-21T03:17:45.800Z,11.98
2023-05-21T03:18:45.797Z,11.94
2023-05-21T03:19:45.768Z,12.01
2023-05-21T03:20:45.769Z,11.94
2023-05-21T03:21:45.769Z,11.86
2023-05-21T03:22:45.737Z,11.82
2023-05-21T03:23:45.733Z,11.82
2023-05-21T03:24:45.714Z,11.82
2023-05-21T03:25:45.710Z,11.90
2023-05-21T03:26:45.717Z,11.85
2023-05-21T03:27:45.674Z,11.83
2023-05-21T03:28:45.664Z,11.86
2023-05-21T03:29:45.656Z,11.85
2023-05-21T03:30:45.664Z,11.67
2023-05-21T03:31:45.694Z,11.70
2023-05-21T03:32:45.640Z,11.78
2023-05-21T03:33:45.610Z,11.67
2023-05-21T03:34:45.611Z,11.76
2023-05-21T03:35:45.617Z,11.75
2023-05-21T03:36:45.582Z,11.73
2023-05-21T03:37:45.564Z,11.76
2023-05-21T03:38:45.554Z,11.73
2023-05-21T03:39:45.565Z,11.65
2023-05-21T03:40:45.541Z,11.60
2023-05-21T03:41:45.523Z,11.58
2023-05-21T03:42:45.514Z,11.60
2023-05-21T03:43:45.522Z,11.58
2023-05-21T03:44:45.497Z,11.58
2023-05-21T03:45:45.484Z,11.58
2023-05-21T03:46:45.471Z,11.62
2023-05-21T03:47:45.520Z,11.55
2023-05-21T03:48:45.438Z,11.60
2023-05-21T03:49:45.442Z,11.57
2023-05-21T03:50:45.429Z,11.52
2023-05-21T03:51:45.403Z,11.60
2023-05-21T03:52:45.390Z,11.55
2023-05-21T03:53:45.400Z,11.61
2023-05-21T03:54:45.390Z,11.57
2023-05-21T03:55:45.361Z,11.60
2023-05-21T03:56:45.367Z,11.60
2023-05-21T03:57:45.339Z,11.61
2023-05-21T03:58:45.336Z,11.64
2023-05-21T03:59:45.322Z,11.64
2023-05-21T04:00:45.302Z,11.60
2023-05-21T04:01:45.319Z,11.57
2023-05-21T04:02:45.371Z,11.70
2023-05-21T04:03:45.456Z,11.70
2023-05-21T04:04:45.352Z,11.75
2023-05-21T04:05:45.261Z,11.82
2023-05-21T04:06:45.247Z,11.85
2023-05-21T04:07:45.241Z,11.85
2023-05-21T04:08:45.227Z,11.85
2023-05-21T04:09:45.204Z,11.80
2023-05-21T04:10:45.206Z,12.02
2023-05-21T04:11:45.190Z,11.95
2023-05-21T04:12:45.188Z,11.88
2023-05-21T04:13:45.152Z,12.05
2023-05-21T04:14:45.149Z,12.01
2023-05-21T04:15:45.177Z,12.05
2023-05-21T04:16:45.136Z,12.10
2023-05-21T04:17:45.137Z,12.09
2023-05-21T04:18:45.758Z,12.12
2023-05-21T04:19:45.118Z,12.12
2023-05-21T04:20:45.074Z,12.10
2023-05-21T04:21:45.096Z,12.17
2023-05-21T04:22:45.055Z,12.17
2023-05-21T04:23:45.039Z,12.16
2023-05-21T04:24:45.036Z,12.23
2023-05-21T04:25:45.022Z,12.27
2023-05-21T04:26:45.024Z,12.31
2023-05-21T04:27:45.001Z,12.31
2023-05-21T04:28:44.980Z,12.31
2023-05-21T04:29:44.995Z,12.32
2023-05-21T04:30:44.977Z,12.29
2023-05-21T04:31:45.058Z,12.39
2023-05-21T04:32:44.960Z,12.39
2023-05-21T04:33:44.929Z,12.39
2023-05-21T04:34:44.923Z,12.45
2023-05-21T04:35:44.946Z,12.47
2023-05-21T04:36:44.894Z,12.47
2023-05-21T04:37:44.884Z,12.52
2023-05-21T04:38:44.870Z,12.47
2023-05-21T04:39:44.864Z,12.60
2023-05-21T04:40:44.858Z,12.59
2023-05-21T04:41:44.856Z,12.67
2023-05-21T04:42:44.822Z,12.53
2023-05-21T04:43:44.824Z,12.62
2023-05-21T04:44:44.887Z,12.74
2023-05-21T04:45:44.806Z,12.74
2023-05-21T04:46:44.853Z,12.78
2023-05-21T04:47:44.807Z,12.77
2023-05-21T04:48:44.755Z,12.79
2023-05-21T04:49:44.764Z,12.83
2023-05-21T04:50:44.738Z,12.90
2023-05-21T04:51:44.837Z,12.86
2023-05-21T04:52:44.719Z,12.97
2023-05-21T04:53:44.700Z,12.96
2023-05-21T04:54:44.720Z,13.12
2023-05-21T04:55:44.688Z,13.17
2023-05-21T04:56:44.676Z,13.08
2023-05-21T04:57:44.662Z,13.11
2023-05-21T04:58:44.671Z,13.29
2023-05-21T04:59:44.665Z,13.19
2023-05-21T05:00:44.633Z,13.36
2023-05-21T05:01:44.618Z,13.26
2023-05-21T05:02:44.733Z,13.45
2023-05-21T05:03:44.655Z,13.36
2023-05-21T05:04:44.575Z,13.39
2023-05-21T05:05:44.569Z,13.44
2023-05-21T05:06:44.558Z,13.49
2023-05-21T05:07:44.575Z,13.52
2023-05-21T05:08:44.545Z,13.52
2023-05-21T05:09:44.524Z,13.44
2023-05-21T05:10:44.517Z,13.51
2023-05-21T05:11:44.499Z,13.51
2023-05-21T05:12:44.504Z,13.55
2023-05-21T05:13:44.516Z,13.55
2023-05-21T05:14:44.465Z,13.54
2023-05-21T05:15:44.467Z,13.59
2023-05-21T05:16:44.490Z,13.66
2023-05-21T05:17:44.468Z,13.57
2023-05-21T05:18:44.440Z,13.66
2023-05-21T05:19:44.424Z,13.70
2023-05-21T05:20:44.389Z,13.75
2023-05-21T05:21:44.401Z,13.69
2023-05-21T05:22:44.404Z,13.79
2023-05-21T05:23:44.382Z,13.92
2023-05-21T05:24:44.357Z,13.85
2023-05-21T05:25:44.347Z,13.99
2023-05-21T05:26:44.353Z,13.97
2023-05-21T05:27:44.339Z,13.99
2023-05-21T05:28:44.300Z,14.02
2023-05-21T05:29:44.295Z,14.10
2023-05-21T05:30:44.298Z,13.97
2023-05-21T05:31:44.286Z,14.10
2023-05-21T05:32:44.284Z,14.15
2023-05-21T05:33:44.251Z,14.15
2023-05-21T05:34:44.244Z,14.09
2023-05-21T05:35:44.228Z,13.99
2023-05-21T05:36:44.228Z,13.95
2023-05-21T05:37:44.205Z,14.14
2023-05-21T05:38:44.212Z,14.10
2023-05-21T05:39:44.294Z,14.21
2023-05-21T05:40:44.185Z,14.15
2023-05-21T05:41:44.192Z,14.24
2023-05-21T05:42:44.144Z,14.18
2023-05-21T05:43:44.129Z,14.20
2023-05-21T05:44:44.134Z,14.28
2023-05-21T05:45:44.141Z,14.20
2023-05-21T05:46:44.145Z,14.27
2023-05-21T05:47:44.139Z,14.22
2023-05-21T05:48:44.087Z,14.24
2023-05-21T05:49:44.079Z,14.29
2023-05-21T05:50:44.077Z,14.28
2023-05-21T05:51:44.045Z,14.36
2023-05-21T05:52:44.035Z,14.39
2023-05-21T05:53:44.025Z,14.45
2023-05-21T05:54:44.055Z,14.54
2023-05-21T05:55:44.057Z,14.50
2023-05-21T05:56:44.013Z,14.52
2023-05-21T05:57:45.072Z,14.51
2023-05-21T05:58:45.051Z,14.64
2023-05-21T05:59:44.015Z,14.73
2023-05-21T06:00:43.943Z,14.70
2023-05-21T06:01:43.942Z,14.61
2023-05-21T06:02:44.013Z,14.65
2023-05-21T06:03:44.036Z,14.75
2023-05-21T06:04:43.977Z,14.77
2023-05-21T06:05:43.899Z,14.73
2023-05-21T06:06:43.874Z,14.70
2023-05-21T06:07:43.868Z,14.72
2023-05-21T06:08:43.883Z,14.80
2023-05-21T06:09:43.919Z,14.77
2023-05-21T06:10:43.838Z,14.84
2023-05-21T06:11:43.843Z,14.89
2023-05-21T06:12:43.809Z,14.91
2023-05-21T06:13:43.817Z,14.84
2023-05-21T06:14:45.216Z,14.94
2023-05-21T06:15:43.822Z,15.16
2023-05-21T06:16:43.766Z,15.25
2023-05-21T06:17:43.789Z,15.19
2023-05-21T06:18:43.797Z,15.25
2023-05-21T06:19:43.772Z,15.31
2023-05-21T06:20:43.716Z,15.20
2023-05-21T06:21:43.713Z,15.21
2023-05-21T06:22:43.695Z,15.21
2023-05-21T06:23:43.698Z,15.23
2023-05-21T06:24:43.674Z,15.27
2023-05-21T06:25:43.666Z,15.25
2023-05-21T06:26:44.686Z,15.27
2023-05-21T06:27:43.784Z,15.28
2023-05-21T06:28:43.662Z,15.36
2023-05-21T06:29:43.621Z,15.27
2023-05-21T06:30:43.610Z,15.36
2023-05-21T06:31:43.595Z,15.31
2023-05-21T06:32:43.712Z,15.35
2023-05-21T06:33:43.698Z,15.32
2023-05-21T06:34:43.567Z,15.39
2023-05-21T06:35:43.554Z,15.35
2023-05-21T06:36:43.548Z,15.44
2023-05-21T06:37:43.545Z,15.36
2023-05-21T06:38:43.524Z,15.41
2023-05-21T06:39:43.519Z,15.46
2023-05-21T06:40:43.496Z,15.53
2023-05-21T06:41:43.507Z,15.60
2023-05-21T06:42:43.494Z,15.72
2023-05-21T06:43:43.483Z,15.76
2023-05-21T06:44:43.471Z,15.68
2023-05-21T06:45:43.474Z,15.84
2023-05-21T06:46:43.457Z,15.89
2023-05-21T06:47:43.796Z,16.04
2023-05-21T06:48:43.401Z,16.00
2023-05-21T06:49:43.416Z,15.94
2023-05-21T06:50:43.379Z,16.07
2023-05-21T06:51:43.399Z,16.17
2023-05-21T06:52:43.364Z,16.28
2023-05-21T06:53:43.353Z,16.24
2023-05-21T06:54:43.333Z,16.27
2023-05-21T06:55:43.363Z,16.43
2023-05-21T06:56:43.336Z,16.53
2023-05-21T06:57:43.298Z,16.60
2023-05-21T06:58:43.290Z,16.78
2023-05-21T06:59:43.307Z,16.89
2023-05-21T07:00:43.290Z,16.94
2023-05-21T07:02:54.334Z,17.00
2023-05-21T07:03:53.952Z,17.12
2023-05-21T07:04:53.952Z,17.11
2023-05-21T07:05:53.944Z,17.16
2023-05-21T07:06:53.926Z,17.14
2023-05-21T07:07:53.903Z,17.04
2023-05-21T07:08:53.898Z,17.11
2023-05-21T07:09:54.046Z,17.15
2023-05-21T07:10:53.877Z,17.04
2023-05-21T07:11:53.860Z,17.11
2023-05-21T07:12:53.854Z,17.15
2023-05-21T07:13:53.834Z,17.15
2023-05-21T07:14:54.193Z,17.22
2023-05-21T07:15:53.814Z,17.26
2023-05-21T07:16:53.888Z,17.26
2023-05-21T07:17:53.880Z,17.41
2023-05-21T07:18:53.858Z,17.40
2023-05-21T07:19:53.793Z,17.46
2023-05-21T07:20:53.756Z,17.48
2023-05-21T07:21:53.750Z,17.37
2023-05-21T07:22:53.737Z,17.26
2023-05-21T07:23:54.005Z,17.26
2023-05-21T07:24:53.733Z,17.37
2023-05-21T07:25:53.711Z,17.46
2023-05-21T07:26:53.690Z,17.63
2023-05-21T07:27:53.682Z,17.82
2023-05-21T07:28:53.700Z,17.95
2023-05-21T07:29:53.676Z,18.10
2023-05-21T07:30:53.725Z,18.30
2023-05-21T07:31:53.662Z,18.42
2023-05-21T07:32:53.656Z,18.48
2023-05-21T07:33:53.636Z,18.47
2023-05-21T07:34:54.568Z,18.50
2023-05-21T07:35:53.597Z,18.60
2023-05-21T07:36:53.581Z,18.73
2023-05-21T07:37:53.618Z,18.66
2023-05-21T07:38:53.581Z,18.75
2023-05-21T07:39:53.573Z,18.58
2023-05-21T07:40:53.537Z,18.54
2023-05-21T07:41:53.533Z,18.42
2023-05-21T07:42:53.528Z,18.15
2023-05-21T07:43:53.523Z,18.14
2023-05-21T07:44:53.506Z,18.07
2023-05-21T07:45:53.528Z,17.99
2023-05-21T07:46:53.484Z,18.03
2023-05-21T07:47:53.521Z,17.96
2023-05-21T07:48:53.450Z,18.07
2023-05-21T07:49:53.437Z,18.15
2023-05-21T07:50:53.424Z,18.23
2023-05-21T07:51:53.440Z,18.23
2023-05-21T07:52:53.597Z,18.26
2023-05-21T07:53:55.102Z,18.44
2023-05-21T07:54:53.390Z,18.55
2023-05-21T07:55:53.373Z,18.75
2023-05-21T07:56:53.446Z,19.11
2023-05-21T07:57:53.368Z,19.29
2023-05-21T07:58:53.352Z,19.47
2023-05-21T07:59:53.339Z,19.50
2023-05-21T08:00:53.352Z,19.40
2023-05-21T08:01:53.345Z,19.46
2023-05-21T08:02:53.426Z,19.13
2023-05-21T08:03:53.545Z,19.11
2023-05-21T08:04:53.347Z,19.29
2023-05-21T08:05:53.296Z,19.54
2023-05-21T08:06:53.279Z,19.71
2023-05-21T08:07:53.268Z,19.71
2023-05-21T08:08:53.234Z,19.47
2023-05-21T08:09:53.220Z,19.56
2023-05-21T08:10:53.223Z,19.66
2023-05-21T08:11:53.229Z,19.71
2023-05-21T08:12:53.184Z,19.83
2023-05-21T08:13:53.183Z,19.83
2023-05-21T08:14:53.161Z,19.96
2023-05-21T08:15:53.685Z,19.96
2023-05-21T08:16:53.173Z,20.01
2023-05-21T08:17:53.141Z,20.14
2023-05-21T08:18:53.180Z,20.29
2023-05-21T08:19:53.129Z,20.43
2023-05-21T08:20:53.136Z,20.47
2023-05-21T08:21:53.290Z,20.48
2023-05-21T08:22:53.072Z,20.58
2023-05-21T08:23:53.061Z,20.69
2023-05-21T08:24:53.077Z,20.72
2023-05-21T08:25:53.042Z,20.69
2023-05-21T08:26:53.039Z,20.95
2023-05-21T08:27:53.033Z,21.14
2023-05-21T08:28:53.012Z,21.28
2023-05-21T08:29:53.019Z,21.29
2023-05-21T08:30:52.999Z,21.21
2023-05-21T08:31:53.034Z,21.34
2023-05-21T08:32:53.047Z,21.49
2023-05-21T08:33:52.987Z,21.56
2023-05-21T08:34:52.996Z,21.56
2023-05-21T08:35:52.941Z,21.49
2023-05-21T08:36:52.922Z,21.53
2023-05-21T08:37:52.924Z,21.47
2023-05-21T08:38:52.930Z,21.40
2023-05-21T08:39:52.903Z,21.54
2023-05-21T08:40:52.889Z,21.62
2023-05-21T08:41:52.874Z,21.99
2023-05-21T08:42:52.872Z,22.15
2023-05-21T08:43:54.333Z,22.22
2023-05-21T08:44:52.838Z,22.40
2023-05-21T08:45:52.876Z,22.68
2023-05-21T08:46:52.865Z,23.00
2023-05-21T08:47:52.868Z,23.20
2023-05-21T08:48:52.819Z,23.40
2023-05-21T08:49:52.784Z,23.58
2023-05-21T08:50:52.880Z,23.60
2023-05-21T08:51:52.770Z,23.76
2023-05-21T08:52:52.764Z,23.58
2023-05-21T08:53:52.728Z,23.42
2023-05-21T08:54:52.726Z,23.47
2023-05-21T08:55:52.718Z,23.60
2023-05-21T08:56:52.704Z,23.60
2023-05-21T08:57:52.706Z,23.40
2023-05-21T08:58:52.674Z,23.40
2023-05-21T08:59:52.672Z,23.46
2023-05-21T09:00:52.780Z,23.57
2023-05-21T09:01:52.825Z,23.47
2023-05-21T09:02:52.684Z,23.43
2023-05-21T09:03:53.486Z,23.48
2023-05-21T09:04:52.617Z,23.51
2023-05-21T09:05:52.618Z,23.42
2023-05-21T09:06:53.017Z,23.36
2023-05-21T09:07:52.883Z,23.16
2023-05-21T09:08:52.573Z,22.92
2023-05-21T09:09:52.557Z,22.61
2023-05-21T09:10:52.544Z,22.31
2023-05-21T09:11:52.549Z,22.40
2023-05-21T09:12:52.530Z,22.40
2023-05-21T09:13:52.521Z,22.10
2023-05-21T09:14:52.505Z,22.14
2023-05-21T09:15:52.517Z,22.21
2023-05-21T09:16:52.508Z,22.22
2023-05-21T09:17:52.495Z,22.22
2023-05-21T09:18:52.492Z,22.31
2023-05-21T09:19:52.451Z,22.47
2023-05-21T09:20:52.458Z,22.39
2023-05-21T09:21:52.447Z,22.49
2023-05-21T09:22:52.437Z,22.61
2023-05-21T09:23:52.406Z,22.68
2023-05-21T09:24:52.419Z,22.79
2023-05-21T09:25:52.404Z,22.85
2023-05-21T09:26:52.436Z,22.91
2023-05-21T09:27:52.375Z,22.97
2023-05-21T09:28:52.368Z,23.00
2023-05-21T09:29:52.352Z,23.12
2023-05-21T09:30:52.366Z,22.97
2023-05-21T09:31:52.426Z,23.01
2023-05-21T09:32:52.471Z,23.27
2023-05-21T09:33:52.296Z,23.13
2023-05-21T09:34:52.306Z,23.22
2023-05-21T09:35:52.272Z,23.36
2023-05-21T09:36:52.284Z,23.55
2023-05-21T09:37:52.338Z,23.55
2023-05-21T09:38:52.403Z,23.63
2023-05-21T09:39:52.249Z,23.48
2023-05-21T09:40:52.220Z,23.42
2023-05-21T09:41:52.208Z,23.19
2023-05-21T09:42:52.221Z,23.35
2023-05-21T09:43:52.208Z,23.38
2023-05-21T09:44:52.209Z,23.42
2023-05-21T09:45:52.208Z,23.19
2023-05-21T09:46:52.222Z,23.10
2023-05-21T09:47:52.255Z,23.15
2023-05-21T09:48:52.154Z,23.05
2023-05-21T09:49:52.122Z,23.17
2023-05-21T09:50:52.117Z,23.12
2023-05-21T09:51:52.104Z,23.04
2023-05-21T09:52:52.103Z,23.23
2023-05-21T09:53:52.110Z,23.25
2023-05-21T09:54:52.087Z,23.31
2023-05-21T09:55:52.057Z,23.39
2023-05-21T09:56:52.072Z,23.43
2023-05-21T09:57:52.109Z,23.69
2023-05-21T09:58:52.039Z,23.70
2023-05-21T09:59:52.024Z,23.80
2023-05-21T10:00:52.007Z,23.63
2023-05-21T10:01:52.134Z,23.72
2023-05-21T10:02:52.068Z,23.95
2023-05-21T10:03:52.006Z,24.42
2023-05-21T10:04:52.127Z,24.61
2023-05-21T10:05:51.949Z,24.68
2023-05-21T10:06:51.938Z,24.52
2023-05-21T10:07:51.967Z,24.65
2023-05-21T10:08:51.930Z,24.49
2023-05-21T10:09:51.911Z,24.42
2023-05-21T10:10:51.910Z,24.42
2023-05-21T10:11:51.901Z,24.42
2023-05-21T10:12:51.887Z,24.32
2023-05-21T10:13:51.868Z,24.27
2023-05-21T10:14:51.852Z,24.09
2023-05-21T10:15:51.862Z,24.12
2023-05-21T10:16:51.855Z,24.12
2023-05-21T10:17:51.865Z,23.95
2023-05-21T10:18:51.828Z,23.60
2023-05-21T10:19:51.794Z,23.65
2023-05-21T10:20:51.788Z,23.65
2023-05-21T10:21:52.782Z,23.60
2023-05-21T10:22:51.762Z,23.50
2023-05-21T10:23:51.755Z,23.43
2023-05-21T10:24:51.745Z,23.68
2023-05-21T10:25:51.744Z,23.78
2023-05-21T10:26:51.759Z,23.69
2023-05-21T10:27:51.709Z,23.65
2023-05-21T10:29:14.361Z,23.83
2023-05-21T10:29:51.696Z,23.80
2023-05-21T10:30:51.701Z,23.87
2023-05-21T10:31:51.701Z,23.93
2023-05-21T10:32:51.760Z,23.97
2023-05-21T10:33:51.651Z,23.83
2023-05-21T10:34:51.639Z,23.85
2023-05-21T10:35:54.321Z,23.72
2023-05-21T10:36:53.321Z,23.73
2023-05-21T10:37:51.593Z,23.80
2023-05-21T10:38:51.577Z,23.90
2023-05-21T10:39:51.611Z,23.95
2023-05-21T10:40:51.582Z,24.00
2023-05-21T10:41:53.941Z,24.00
2023-05-21T10:42:51.666Z,24.16
2023-05-21T10:43:51.534Z,24.09
2023-05-21T10:44:51.538Z,23.97
2023-05-21T10:45:51.562Z,23.70
2023-05-21T10:46:51.499Z,23.72
2023-05-21T10:47:52.864Z,23.84
2023-05-21T10:48:51.488Z,23.80
2023-05-21T10:49:51.493Z,23.85
2023-05-21T10:50:51.459Z,23.72
2023-05-21T10:51:51.451Z,23.84
2023-05-21T10:52:51.441Z,24.00
2023-05-21T10:53:51.440Z,23.91
2023-05-21T10:54:51.891Z,24.05
2023-05-21T10:55:51.423Z,23.95
2023-05-21T10:56:51.388Z,24.06
2023-05-21T10:57:51.442Z,23.98
2023-05-21T10:58:51.516Z,23.95
2023-05-21T10:59:51.361Z,23.84
2023-05-21T11:00:51.377Z,23.87
2023-05-21T11:01:51.346Z,23.98
2023-05-21T11:02:51.382Z,23.98
2023-05-21T11:03:51.431Z,24.09
2023-05-21T11:04:51.305Z,24.10
2023-05-21T11:05:51.308Z,24.16
2023-05-21T11:06:51.299Z,24.16
2023-05-21T11:07:51.298Z,24.28
2023-05-21T11:08:53.157Z,24.28
2023-05-21T11:09:51.274Z,24.28
2023-05-21T11:10:51.242Z,24.45
2023-05-21T11:11:51.248Z,24.57
2023-05-21T11:12:51.233Z,24.53
2023-05-21T11:13:51.218Z,24.61
2023-05-21T11:14:51.229Z,24.53
2023-05-21T11:15:51.183Z,24.49
2023-05-21T11:16:51.252Z,24.39
2023-05-21T11:17:51.226Z,24.46
2023-05-21T11:18:51.214Z,24.35
2023-05-21T11:19:51.146Z,24.32
2023-05-21T11:20:51.130Z,24.40
2023-05-21T11:21:51.147Z,24.40
2023-05-21T11:22:51.114Z,24.49
2023-05-21T11:23:51.204Z,24.62
2023-05-21T11:24:51.652Z,24.64
2023-05-21T11:25:51.078Z,24.67
2023-05-21T11:26:51.089Z,24.53
2023-05-21T11:27:51.072Z,24.43
2023-05-21T11:28:51.047Z,24.58
2023-05-21T11:29:51.037Z,24.73
2023-05-21T11:30:51.055Z,24.73
2023-05-21T11:31:51.020Z,24.77
2023-05-21T11:32:51.043Z,24.77
2023-05-21T11:33:50.991Z,25.03
2023-05-21T11:34:50.980Z,25.17
2023-05-21T11:35:51.074Z,25.21
2023-05-21T11:36:50.971Z,25.35
2023-05-21T11:37:50.987Z,25.30
2023-05-21T11:38:50.936Z,25.32
2023-05-21T11:39:50.935Z,24.99
2023-05-21T11:40:50.925Z,24.91
2023-05-21T11:41:50.923Z,24.90
2023-05-21T11:42:50.902Z,24.84
2023-05-21T11:43:50.878Z,24.76
2023-05-21T11:44:50.908Z,24.69
2023-05-21T11:45:50.873Z,24.76
2023-05-21T11:46:50.892Z,24.71
2023-05-21T11:47:50.859Z,24.99
2023-05-21T11:48:50.826Z,25.27
2023-05-21T11:49:50.830Z,25.43
2023-05-21T11:50:50.801Z,25.50
2023-05-21T11:51:50.798Z,25.58
2023-05-21T11:52:50.785Z,25.60
2023-05-21T11:53:50.770Z,25.55
2023-05-21T11:54:50.964Z,25.47
2023-05-21T11:55:50.798Z,25.58
2023-05-21T11:56:50.740Z,25.47
2023-05-21T11:57:50.740Z,25.58
2023-05-21T11:58:50.738Z,25.45
2023-05-21T11:59:50.726Z,25.50
2023-05-21T12:00:50.693Z,25.24
2023-05-21T12:01:50.681Z,25.25
2023-05-21T12:02:50.808Z,25.28
2023-05-21T12:03:50.758Z,25.23
2023-05-21T12:04:50.662Z,25.15
2023-05-21T12:05:50.652Z,25.25
2023-05-21T12:06:50.657Z,25.36
2023-05-21T12:07:50.658Z,25.30
2023-05-21T12:08:50.639Z,25.43
2023-05-21T12:09:50.606Z,25.43
2023-05-21T12:10:50.589Z,25.43
2023-05-21T12:11:50.591Z,25.32
2023-05-21T12:12:55.626Z,25.30
2023-05-21T12:13:50.593Z,25.39
2023-05-21T12:14:50.542Z,25.55
2023-05-21T12:15:50.537Z,25.58
2023-05-21T12:16:50.545Z,25.64
2023-05-21T12:17:50.587Z,25.55
2023-05-21T12:18:50.547Z,25.64
2023-05-21T12:19:50.508Z,25.69
2023-05-21T12:20:50.486Z,25.55
2023-05-21T12:21:50.472Z,25.64
2023-05-21T12:22:50.516Z,25.75
2023-05-21T12:23:50.451Z,25.73
2023-05-21T12:24:50.439Z,25.73
2023-05-21T12:25:50.432Z,25.87
2023-05-21T12:26:50.447Z,25.73
2023-05-21T12:27:50.419Z,25.73
2023-05-21T12:28:50.408Z,25.76
2023-05-21T12:29:50.381Z,25.80
2023-05-21T12:30:50.374Z,25.76
2023-05-21T12:31:50.464Z,25.73
2023-05-21T12:32:50.450Z,25.57
2023-05-21T12:33:50.347Z,25.75
2023-05-21T12:34:50.350Z,25.79
2023-05-21T12:35:50.591Z,25.80
2023-05-21T12:36:50.328Z,25.94
2023-05-21T12:37:50.301Z,25.73
2023-05-21T12:38:50.284Z,25.87
2023-05-21T12:39:50.280Z,25.92
2023-05-21T12:40:50.274Z,25.95
2023-05-21T12:41:50.270Z,26.02
2023-05-21T12:42:50.246Z,26.28
2023-05-21T12:43:50.238Z,26.44
2023-05-21T12:44:50.230Z,26.51
2023-05-21T12:45:50.251Z,26.60
2023-05-21T12:46:50.199Z,26.66
2023-05-21T12:47:50.263Z,26.63
2023-05-21T12:48:50.184Z,26.48
2023-05-21T12:49:50.187Z,26.43
2023-05-21T12:50:50.200Z,26.40
2023-05-21T12:51:50.154Z,26.50
2023-05-21T12:52:50.148Z,26.51
2023-05-21T12:53:50.124Z,26.58
2023-05-21T12:54:50.194Z,26.47